Decoded Metar for PAHP (HOOPER BAY in AK, USA) (IATA:HPB) | Meteo·Mobile Aviation Weather
aviador You're here:

PAHP Decoded Metar

HOOPER BAY in AK, USA
Report Time2019-06-18 05:56:00
UTC Time2019-06-18 06:37:17
Flight Rules vfr VFR
Wind320° at 15 kt
W.Decomp.*RWY 31: 15.0 kt HW 0.8 kt LCW
Visibility9999 m
Phenomena:N/A
Clouds:N/A
Expected CloudBase > 800 ft AGL from Temp-Dew spread
CeilingNone
Temp13°C (ISA -2)
Dew Point11°C (88% RH)
AAT7.9°C
QNH1007 hPa
Density Alt161 ft
Elevation16 ft
Report Wrong Elevation
Raw Report
PAHP 180556Z AUTO 32015KT 10SM CLR 13/11 A2974 RMK AO2 SLP108
T01280106 10139 20128 58003=

Extra information for PAHP:More info

Metar Taf Metar & Taf Last 4 Metars F.Rules Stats Wind Profile Meteogram Temp Stats Airport Information Weather charts Add Link Nearby VenuesMetar ALERT Operation Metar Decoded Social comments

AIRNAV info for PAHP